Terminal Aerodrome Forecast
Issued by NWS Detroit/Pontiac, MI

Current Version | Previous Version | Text Only | Print | Product List | Glossary On
Versions: 1 2 3 4 5 6 7 8 9 10 11 12 13 14 15 16 17
000
FTUS43 KDTX 231100
TAFFNT
TAF
KFNT 231121Z 2312/2412 05003KT 1/4SM FG VV002
     FM231300 05005KT 1/2SM FG OVC002
     FM231400 07003KT 3SM BR OVC008
     FM231500 09007KT P6SM SCT020 BKN040
     FM232200 12005KT P6SM SCT070
     FM240700 07005KT 4SM BR BKN015=

USA.gov is the U.S. government's official web portal to all federal, state and local government web resources and services.